Flight Track Log - Related Links

Times and Time Zones

All times are in EDT time to prevent confusion due to time zone crossing. See the EJA951 flight status page for this flight to view local times or setup timezone preferences in your user account.

Time Position Orientation Groundspeed Altitude Reporting Facility
EDT Latitude Longitude Course Direction KTS MPH feet Rate Location/Type
Fri 04:18:14 PM 39.7000 -86.3000 191° South 156 180 1,600  Level Indianapolis TRACON
Fri 04:19:38 PM 39.6333 -86.3167 191° South 269 310 5,800 3,583 Climbing Indianapolis TRACON
Fri 04:20:38 PM 39.6333 -86.2000 90° East 331 381 10,200 3,521 Climbing Indianapolis TRACON
Fri 04:21:39 PM 39.6667 -86.0833 70° East 344 396 12,900 1,560 Climbing Indianapolis TRACON
Fri 04:23:08 PM 39.7111 -85.9036 72° East 383 441 14,100 1,113 Climbing Indianapolis Center
Fri 04:24:10 PM 39.7497 -85.7603 71° East 413 475 15,700 1,355 Climbing Indianapolis Center
Fri 04:25:12 PM 39.7906 -85.6050 71° East 447 514 16,900 629 Climbing Indianapolis Center
Fri 04:26:14 PM 39.8342 -85.4478 70° East 462 532 17,000 48 Climbing Indianapolis Center
Fri 04:27:16 PM 39.8767 -85.3067 69° East 428 493 17,000 48 Level Indianapolis Center
Fri 04:28:18 PM 39.9286 -85.1308 69° East 430 495 17,100 48 Climbing Indianapolis Center
Fri 04:29:20 PM 39.9708 -84.9825 70° East 433 498 17,100  Level Indianapolis Center
Fri 04:30:22 PM 40.0089 -84.8472 70° East 434 499 17,100 -48 Level Indianapolis Center
Fri 04:31:24 PM 40.0528 -84.6992 69° East 434 499 17,000  Descending Indianapolis Center
Fri 04:32:26 PM 40.1022 -84.5197 70° East 435 501 17,100  Climbing Indianapolis Center
Fri 04:33:28 PM 40.1453 -84.3731 69° East 435 501 17,000  Descending Indianapolis Center
Fri 04:34:30 PM 40.1853 -84.2286 70° East 428 493 17,100 48 Climbing Indianapolis Center
Fri 04:35:33 PM 40.2250 -84.0839 70° East 425 489 17,100  Level Indianapolis Center
Fri 04:36:35 PM 40.2658 -83.9406 69° East 421 484 17,100 -48 Level Indianapolis Center
Fri 04:37:37 PM 40.3047 -83.7969 70° East 421 484 17,000 -876 Descending Indianapolis Center
Fri 04:38:04 PM 40.3294 -83.7094 70° East 422 486 15,800 -2,419 Descending Indianapolis Center
Fri 04:38:39 PM 40.3533 -83.6225 70° East 421 484 14,500 -2,093 Descending Indianapolis Center
Fri 04:38:47 PM 40.3567 -83.6069 74° East 423 487 14,300 -435 Descending Indianapolis Center
Fri 04:39:48 PM 40.3964 -83.4625 70° East 392 451 14,000 -931 Descending Indianapolis Center
Fri 04:40:43 PM 40.4064 -83.3461 84° East 404 465 12,500 -1,791 Descending Indianapolis Center
Fri 04:40:55 PM 40.3936 -83.3192 122° Southeast 383 441 12,000 -1,452 Descending Indianapolis Center
Fri 04:41:45 PM 40.3597 -83.2211 114° Southeast 386 444 11,000 -1,254 Descending Indianapolis Center
Fri 04:42:02 PM 40.3353 -83.1831 130° Southeast 352 405 10,600 -1,065 Descending Indianapolis Center
Fri 04:42:47 PM 40.2964 -83.1219 130° Southeast 358 412 9,900 -984 Descending Indianapolis Center
Fri 04:43:03 PM 40.2750 -83.0881 130° Southeast 324 373 9,600 -1,258 Descending Indianapolis Center
Fri 04:43:49 PM 40.2419 -83.0331 128° Southeast 329 379 8,600 -1,574 Descending Indianapolis Center
Fri 04:44:04 PM 40.2244 -83.0031 127° Southeast 294 338 8,000 -1,548 Descending Indianapolis Center
Fri 04:44:51 PM 40.1933 -82.9483 127° Southeast 303 349 7,000 -1,574 Descending Indianapolis Center
Fri 04:45:05 PM 40.1756 -82.9186 128° Southeast 280 322 6,400 -1,161 Descending Indianapolis Center
Fri 04:45:53 PM 40.1392 -82.8519 126° Southeast 281 323 5,800 -787 Descending Indianapolis Center
Fri 04:46:06 PM 40.1306 -82.8403 134° Southeast 267 307 5,600 -1,238 Descending Indianapolis Center
Fri 04:46:56 PM 40.0956 -82.7767 126° Southeast 268 308 4,500 -1,279 Descending Indianapolis Center
Fri 04:47:07 PM 40.0894 -82.7625 119° Southeast 254 292 4,300 -1,258 Descending Indianapolis Center
Fri 04:47:58 PM 40.0614 -82.6997 120° Southeast 258 297 3,200 -1,309 Descending Indianapolis Center
Fri 04:48:02 PM 40.0556 -82.6972 162° South 237 273 3,100 -194 Descending Indianapolis Center
Fri 04:49:00 PM 40.0097 -82.7147 196° South 231 266 3,000 -90 Descending Indianapolis Center
Fri 04:49:09 PM 40.0042 -82.7328 248° West 190 219 3,000 -581 Level Indianapolis Center
Fri 04:50:02 PM 39.9942 -82.7828 255° West 210 242 2,400 -984 Descending Indianapolis Center
Fri 04:50:10 PM 39.9956 -82.7997 276° West 186 214 2,000 -968 Descending Indianapolis Center
Fri 04:51:04 PM 39.9994 -82.8494 276° West 130 150 1,400 -414 Descending Indianapolis Center
Fri 04:52:06 PM 40.0031 -82.8981 276° West 164 189 1,200 -194 Descending Indianapolis Center

Login

Don't have an account? Register now (free) for customized features, flight alerts, and more!